sensor_id;sensor_type;location;lat;lon;timestamp;pressure;altitude;pressure_sealevel;temperature;humidity
72370;BME280;60343;-32.030;115.880;2023-04-08T00:02:04;101813.47;;;17.24;67.61
72370;BME280;60343;-32.030;115.880;2023-04-08T00:04:38;101807.31;;;17.30;67.97
72370;BME280;60343;-32.030;115.880;2023-04-08T00:07:13;101810.06;;;17.36;67.84
72370;BME280;60343;-32.030;115.880;2023-04-08T00:09:48;101813.16;;;17.33;67.81
72370;BME280;60343;-32.030;115.880;2023-04-08T00:12:28;101806.97;;;17.39;67.69
72370;BME280;60343;-32.030;115.880;2023-04-08T00:15:03;101815.41;;;17.51;67.25
72370;BME280;60343;-32.030;115.880;2023-04-08T00:17:38;101808.06;;;17.60;66.61
72370;BME280;60343;-32.030;115.880;2023-04-08T00:20:13;101806.47;;;17.72;66.33
72370;BME280;60343;-32.030;115.880;2023-04-08T00:22:47;101811.72;;;17.73;66.02
72370;BME280;60343;-32.030;115.880;2023-04-08T00:25:22;101811.56;;;17.81;66.31
72370;BME280;60343;-32.030;115.880;2023-04-08T00:28:05;101809.22;;;17.99;65.67
72370;BME280;60343;-32.030;115.880;2023-04-08T00:30:42;101811.59;;;18.09;64.78
72370;BME280;60343;-32.030;115.880;2023-04-08T00:33:18;101808.72;;;18.17;64.64
72370;BME280;60343;-32.030;115.880;2023-04-08T00:35:52;101810.78;;;18.43;63.60
72370;BME280;60343;-32.030;115.880;2023-04-08T00:38:27;101808.38;;;18.55;63.07
72370;BME280;60343;-32.030;115.880;2023-04-08T00:41:01;101809.00;;;18.57;64.13
72370;BME280;60343;-32.030;115.880;2023-04-08T00:43:42;101814.88;;;18.60;63.70
72370;BME280;60343;-32.030;115.880;2023-04-08T00:46:16;101805.97;;;18.73;63.58
72370;BME280;60343;-32.030;115.880;2023-04-08T00:48:51;101816.44;;;18.76;63.96
72370;BME280;60343;-32.030;115.880;2023-04-08T00:51:25;101812.03;;;18.81;63.08
72370;BME280;60343;-32.030;115.880;2023-04-08T00:54:00;101803.50;;;18.84;63.16
72370;BME280;60343;-32.030;115.880;2023-04-08T00:56:36;101812.72;;;18.97;62.63
72370;BME280;60343;-32.030;115.880;2023-04-08T00:59:17;101806.91;;;19.00;63.07
72370;BME280;60343;-32.030;115.880;2023-04-08T01:01:56;101808.22;;;19.23;62.00
72370;BME280;60343;-32.030;115.880;2023-04-08T01:04:43;101804.72;;;19.43;61.39
72370;BME280;60343;-32.030;115.880;2023-04-08T01:07:21;101804.38;;;19.72;60.64
72370;BME280;60343;-32.030;115.880;2023-04-08T01:09:59;101793.94;;;19.89;60.08
72370;BME280;60343;-32.030;115.880;2023-04-08T01:12:40;101793.66;;;20.56;58.64
72370;BME280;60343;-32.030;115.880;2023-04-08T01:15:24;101794.50;;;21.46;56.06
72370;BME280;60343;-32.030;115.880;2023-04-08T01:18:00;101786.84;;;21.61;54.35
72370;BME280;60343;-32.030;115.880;2023-04-08T01:20:36;101797.88;;;22.22;53.03
72370;BME280;60343;-32.030;115.880;2023-04-08T01:23:14;101783.69;;;22.50;51.95
72370;BME280;60343;-32.030;115.880;2023-04-08T01:25:57;101787.59;;;22.42;52.19
72370;BME280;60343;-32.030;115.880;2023-04-08T01:28:33;101778.31;;;22.25;52.58
72370;BME280;60343;-32.030;115.880;2023-04-08T01:31:10;101780.41;;;22.05;52.63
72370;BME280;60343;-32.030;115.880;2023-04-08T01:33:45;101779.88;;;21.90;53.35
72370;BME280;60343;-32.030;115.880;2023-04-08T01:36:21;101776.44;;;21.76;53.27
72370;BME280;60343;-32.030;115.880;2023-04-08T01:38:59;101784.44;;;21.71;54.54
72370;BME280;60343;-32.030;115.880;2023-04-08T01:41:40;101781.56;;;21.91;54.19
72370;BME280;60343;-32.030;115.880;2023-04-08T01:44:16;101775.94;;;22.10;53.08
72370;BME280;60343;-32.030;115.880;2023-04-08T01:46:53;101793.34;;;22.52;51.89
72370;BME280;60343;-32.030;115.880;2023-04-08T01:49:29;101778.41;;;22.37;52.50
72370;BME280;60343;-32.030;115.880;2023-04-08T01:52:05;101776.50;;;22.37;52.42
72370;BME280;60343;-32.030;115.880;2023-04-08T01:54:39;101777.88;;;22.28;52.60
72370;BME280;60343;-32.030;115.880;2023-04-08T01:57:23;101775.78;;;22.23;52.17
72370;BME280;60343;-32.030;115.880;2023-04-08T02:00:01;101785.44;;;22.08;52.89
72370;BME280;60343;-32.030;115.880;2023-04-08T02:02:37;101780.34;;;22.11;52.37
72370;BME280;60343;-32.030;115.880;2023-04-08T02:05:11;101770.28;;;21.87;52.61
72370;BME280;60343;-32.030;115.880;2023-04-08T02:07:48;101775.44;;;21.70;53.89
72370;BME280;60343;-32.030;115.880;2023-04-08T02:10:22;101772.53;;;21.65;54.05
72370;BME280;60343;-32.030;115.880;2023-04-08T02:13:02;101782.06;;;21.56;54.69
72370;BME280;60343;-32.030;115.880;2023-04-08T02:15:40;101781.22;;;21.56;55.05
72370;BME280;60343;-32.030;115.880;2023-04-08T02:18:19;101781.16;;;21.62;53.92
72370;BME280;60343;-32.030;115.880;2023-04-08T02:20:59;101777.28;;;21.76;54.17
72370;BME280;60343;-32.030;115.880;2023-04-08T02:23:38;101769.47;;;21.80;53.01
72370;BME280;60343;-32.030;115.880;2023-04-08T02:26:14;101768.75;;;21.98;52.60
72370;BME280;60343;-32.030;115.880;2023-04-08T02:28:56;101768.34;;;21.94;52.06
72370;BME280;60343;-32.030;115.880;2023-04-08T02:31:31;101779.03;;;21.89;52.98
72370;BME280;60343;-32.030;115.880;2023-04-08T02:34:08;101779.50;;;21.86;52.90
72370;BME280;60343;-32.030;115.880;2023-04-08T02:36:43;101771.91;;;21.88;53.14
72370;BME280;60343;-32.030;115.880;2023-04-08T02:39:18;101777.53;;;21.93;52.50
72370;BME280;60343;-32.030;115.880;2023-04-08T02:41:53;101761.94;;;22.07;52.51
72370;BME280;60343;-32.030;115.880;2023-04-08T02:44:33;101766.38;;;22.01;51.70
72370;BME280;60343;-32.030;115.880;2023-04-08T02:47:09;101766.59;;;22.00;52.12
72370;BME280;60343;-32.030;115.880;2023-04-08T02:49:44;101763.44;;;22.03;52.24
72370;BME280;60343;-32.030;115.880;2023-04-08T02:52:20;101767.56;;;22.85;50.47
72370;BME280;60343;-32.030;115.880;2023-04-08T02:54:54;101757.63;;;22.90;50.06
72370;BME280;60343;-32.030;115.880;2023-04-08T02:57:29;101759.16;;;22.68;49.86
72370;BME280;60343;-32.030;115.880;2023-04-08T03:00:11;101758.94;;;22.33;50.33
72370;BME280;60343;-32.030;115.880;2023-04-08T03:02:45;101761.97;;;22.00;51.98
72370;BME280;60343;-32.030;115.880;2023-04-08T03:05:20;101756.91;;;21.79;52.88
72370;BME280;60343;-32.030;115.880;2023-04-08T03:07:55;101763.81;;;21.57;53.56
72370;BME280;60343;-32.030;115.880;2023-04-08T03:10:29;101759.03;;;21.52;53.97
72370;BME280;60343;-32.030;115.880;2023-04-08T03:13:04;101759.34;;;21.37;53.86
72370;BME280;60343;-32.030;115.880;2023-04-08T03:15:44;101756.53;;;21.51;54.41
72370;BME280;60343;-32.030;115.880;2023-04-08T03:18:19;101755.88;;;21.49;54.65
72370;BME280;60343;-32.030;115.880;2023-04-08T03:20:53;101754.41;;;21.53;54.26
72370;BME280;60343;-32.030;115.880;2023-04-08T03:23:29;101750.28;;;21.68;53.57
72370;BME280;60343;-32.030;115.880;2023-04-08T03:26:04;101753.50;;;21.83;52.92
72370;BME280;60343;-32.030;115.880;2023-04-08T03:28:39;101745.41;;;22.02;53.22
72370;BME280;60343;-32.030;115.880;2023-04-08T03:31:19;101744.38;;;22.21;52.28
72370;BME280;60343;-32.030;115.880;2023-04-08T03:33:53;101739.53;;;22.23;52.39
72370;BME280;60343;-32.030;115.880;2023-04-08T03:36:28;101729.34;;;22.30;51.37
72370;BME280;60343;-32.030;115.880;2023-04-08T03:39:03;101728.06;;;22.51;51.20
72370;BME280;60343;-32.030;115.880;2023-04-08T03:41:37;101733.09;;;22.72;50.85
72370;BME280;60343;-32.030;115.880;2023-04-08T03:44:12;101737.91;;;22.70;50.53
72370;BME280;60343;-32.030;115.880;2023-04-08T03:46:52;101731.25;;;22.66;50.02
72370;BME280;60343;-32.030;115.880;2023-04-08T03:49:26;101735.63;;;22.49;50.74
72370;BME280;60343;-32.030;115.880;2023-04-08T03:52:01;101736.28;;;22.33;51.23
72370;BME280;60343;-32.030;115.880;2023-04-08T03:54:35;101735.44;;;22.32;51.82
72370;BME280;60343;-32.030;115.880;2023-04-08T03:57:10;101734.06;;;22.23;51.22
72370;BME280;60343;-32.030;115.880;2023-04-08T03:59:45;101734.59;;;22.32;51.30
72370;BME280;60343;-32.030;115.880;2023-04-08T04:02:25;101729.34;;;22.48;51.10
72370;BME280;60343;-32.030;115.880;2023-04-08T04:04:59;101734.44;;;22.63;51.12
72370;BME280;60343;-32.030;115.880;2023-04-08T04:07:34;101725.59;;;22.97;50.26
72370;BME280;60343;-32.030;115.880;2023-04-08T04:10:09;101726.84;;;23.25;49.23
72370;BME280;60343;-32.030;115.880;2023-04-08T04:12:43;101724.25;;;23.30;48.88
72370;BME280;60343;-32.030;115.880;2023-04-08T04:15:18;101715.13;;;23.36;49.19
72370;BME280;60343;-32.030;115.880;2023-04-08T04:18:00;101713.31;;;23.30;49.27
72370;BME280;60343;-32.030;115.880;2023-04-08T04:20:38;101706.09;;;23.24;50.08
72370;BME280;60343;-32.030;115.880;2023-04-08T04:23:12;101705.66;;;22.97;49.68
72370;BME280;60343;-32.030;115.880;2023-04-08T04:25:47;101711.97;;;22.61;50.40
72370;BME280;60343;-32.030;115.880;2023-04-08T04:28:21;101707.97;;;22.45;51.12
72370;BME280;60343;-32.030;115.880;2023-04-08T04:30:57;101710.13;;;22.43;51.13
72370;BME280;60343;-32.030;115.880;2023-04-08T04:33:37;101708.44;;;22.24;51.14
72370;BME280;60343;-32.030;115.880;2023-04-08T04:36:11;101710.78;;;22.20;51.50
72370;BME280;60343;-32.030;115.880;2023-04-08T04:38:46;101706.97;;;22.03;51.91
72370;BME280;60343;-32.030;115.880;2023-04-08T04:41:21;101707.72;;;21.92;52.38
72370;BME280;60343;-32.030;115.880;2023-04-08T04:43:55;101710.28;;;21.87;52.75
72370;BME280;60343;-32.030;115.880;2023-04-08T04:46:30;101712.22;;;21.80;53.00
72370;BME280;60343;-32.030;115.880;2023-04-08T04:49:10;101706.47;;;21.88;53.60
72370;BME280;60343;-32.030;115.880;2023-04-08T04:51:44;101706.41;;;22.01;52.61
72370;BME280;60343;-32.030;115.880;2023-04-08T04:54:19;101707.44;;;22.18;54.06
72370;BME280;60343;-32.030;115.880;2023-04-08T04:56:53;101698.75;;;22.46;52.02
72370;BME280;60343;-32.030;115.880;2023-04-08T04:59:28;101683.63;;;22.62;50.26
72370;BME280;60343;-32.030;115.880;2023-04-08T05:02:03;101692.13;;;22.72;50.35
72370;BME280;60343;-32.030;115.880;2023-04-08T05:04:43;101688.63;;;22.83;51.04
72370;BME280;60343;-32.030;115.880;2023-04-08T05:07:20;101678.19;;;22.62;50.92
72370;BME280;60343;-32.030;115.880;2023-04-08T05:09:54;101679.09;;;22.56;51.43
72370;BME280;60343;-32.030;115.880;2023-04-08T05:12:29;101673.66;;;22.38;51.84
72370;BME280;60343;-32.030;115.880;2023-04-08T05:15:05;101677.44;;;22.37;51.99
72370;BME280;60343;-32.030;115.880;2023-04-08T05:17:40;101671.66;;;22.45;50.71
72370;BME280;60343;-32.030;115.880;2023-04-08T05:20:20;101682.00;;;22.43;51.24
72370;BME280;60343;-32.030;115.880;2023-04-08T05:22:55;101675.84;;;22.29;51.59
72370;BME280;60343;-32.030;115.880;2023-04-08T05:25:30;101680.63;;;22.15;52.33
72370;BME280;60343;-32.030;115.880;2023-04-08T05:28:05;101683.84;;;22.12;52.67
72370;BME280;60343;-32.030;115.880;2023-04-08T05:30:39;101683.00;;;22.12;52.34
72370;BME280;60343;-32.030;115.880;2023-04-08T05:33:14;101675.94;;;22.04;52.79
72370;BME280;60343;-32.030;115.880;2023-04-08T05:35:54;101684.13;;;22.04;52.51
72370;BME280;60343;-32.030;115.880;2023-04-08T05:38:28;101673.59;;;22.08;52.22
72370;BME280;60343;-32.030;115.880;2023-04-08T05:41:03;101673.97;;;22.11;52.31
72370;BME280;60343;-32.030;115.880;2023-04-08T05:43:37;101679.44;;;22.11;52.40
72370;BME280;60343;-32.030;115.880;2023-04-08T05:46:12;101680.28;;;22.12;52.03
72370;BME280;60343;-32.030;115.880;2023-04-08T05:48:46;101677.75;;;22.10;51.87
72370;BME280;60343;-32.030;115.880;2023-04-08T05:51:26;101673.22;;;22.04;52.09
72370;BME280;60343;-32.030;115.880;2023-04-08T05:54:01;101670.22;;;21.88;52.23
72370;BME280;60343;-32.030;115.880;2023-04-08T05:56:36;101670.00;;;21.89;52.69
72370;BME280;60343;-32.030;115.880;2023-04-08T05:59:12;101669.97;;;21.96;52.75
72370;BME280;60343;-32.030;115.880;2023-04-08T06:01:47;101664.09;;;21.92;53.45
72370;BME280;60343;-32.030;115.880;2023-04-08T06:04:21;101660.19;;;22.06;52.84
72370;BME280;60343;-32.030;115.880;2023-04-08T06:07:02;101646.00;;;22.34;52.17
72370;BME280;60343;-32.030;115.880;2023-04-08T06:09:36;101641.34;;;22.53;51.59
72370;BME280;60343;-32.030;115.880;2023-04-08T06:12:11;101643.25;;;22.52;51.35
72370;BME280;60343;-32.030;115.880;2023-04-08T06:14:45;101645.28;;;22.39;51.27
72370;BME280;60343;-32.030;115.880;2023-04-08T06:17:20;101648.91;;;22.21;51.88
72370;BME280;60343;-32.030;115.880;2023-04-08T06:19:54;101655.94;;;22.10;51.92
72370;BME280;60343;-32.030;115.880;2023-04-08T06:22:35;101658.22;;;21.95;52.26
72370;BME280;60343;-32.030;115.880;2023-04-08T06:25:10;101655.81;;;21.80;52.53
72370;BME280;60343;-32.030;115.880;2023-04-08T06:27:44;101669.66;;;21.79;53.16
72370;BME280;60343;-32.030;115.880;2023-04-08T06:30:19;101664.69;;;21.76;53.53
72370;BME280;60343;-32.030;115.880;2023-04-08T06:32:54;101670.56;;;21.73;53.76
72370;BME280;60343;-32.030;115.880;2023-04-08T06:35:30;101673.66;;;21.58;54.81
72370;BME280;60343;-32.030;115.880;2023-04-08T06:38:22;101668.44;;;21.57;55.04
72370;BME280;60343;-32.030;115.880;2023-04-08T06:41:01;101657.59;;;21.50;55.32
72370;BME280;60343;-32.030;115.880;2023-04-08T06:43:36;101668.47;;;21.75;54.71
72370;BME280;60343;-32.030;115.880;2023-04-08T06:46:10;101652.97;;;21.94;54.27
72370;BME280;60343;-32.030;115.880;2023-04-08T06:48:45;101650.31;;;22.23;53.15
72370;BME280;60343;-32.030;115.880;2023-04-08T06:51:19;101647.28;;;22.32;52.94
72370;BME280;60343;-32.030;115.880;2023-04-08T06:53:59;101654.84;;;22.48;52.57
72370;BME280;60343;-32.030;115.880;2023-04-08T06:56:36;101648.47;;;22.72;51.17
72370;BME280;60343;-32.030;115.880;2023-04-08T06:59:10;101653.00;;;22.78;50.83
72370;BME280;60343;-32.030;115.880;2023-04-08T07:01:45;101649.91;;;22.56;50.92
72370;BME280;60343;-32.030;115.880;2023-04-08T07:04:19;101657.00;;;22.28;52.16
72370;BME280;60343;-32.030;115.880;2023-04-08T07:06:54;101665.19;;;22.09;52.77
72370;BME280;60343;-32.030;115.880;2023-04-08T07:09:34;101670.44;;;21.86;53.55
72370;BME280;60343;-32.030;115.880;2023-04-08T07:12:09;101674.06;;;21.62;54.16
72370;BME280;60343;-32.030;115.880;2023-04-08T07:14:44;101671.16;;;21.57;54.59
72370;BME280;60343;-32.030;115.880;2023-04-08T07:17:19;101670.13;;;21.58;53.45
72370;BME280;60343;-32.030;115.880;2023-04-08T07:19:54;101670.69;;;21.60;53.54
72370;BME280;60343;-32.030;115.880;2023-04-08T07:22:29;101672.06;;;21.51;53.67
72370;BME280;60343;-32.030;115.880;2023-04-08T07:25:09;101675.69;;;21.63;53.75
72370;BME280;60343;-32.030;115.880;2023-04-08T07:27:44;101670.19;;;21.69;53.32
72370;BME280;60343;-32.030;115.880;2023-04-08T07:30:19;101665.13;;;21.73;53.14
72370;BME280;60343;-32.030;115.880;2023-04-08T07:32:54;101660.59;;;21.67;53.71
72370;BME280;60343;-32.030;115.880;2023-04-08T07:35:28;101667.63;;;21.74;53.35
72370;BME280;60343;-32.030;115.880;2023-04-08T07:38:03;101664.00;;;21.80;53.63
72370;BME280;60343;-32.030;115.880;2023-04-08T07:40:44;101656.53;;;21.94;53.51
72370;BME280;60343;-32.030;115.880;2023-04-08T07:43:18;101659.03;;;22.14;53.62
72370;BME280;60343;-32.030;115.880;2023-04-08T07:45:53;101661.69;;;22.20;52.45
72370;BME280;60343;-32.030;115.880;2023-04-08T07:48:29;101664.06;;;22.17;52.75
72370;BME280;60343;-32.030;115.880;2023-04-08T07:51:04;101664.59;;;22.07;52.77
72370;BME280;60343;-32.030;115.880;2023-04-08T07:53:39;101665.72;;;22.00;53.23
72370;BME280;60343;-32.030;115.880;2023-04-08T07:56:19;101655.69;;;21.94;53.07
72370;BME280;60343;-32.030;115.880;2023-04-08T07:58:54;101669.34;;;21.94;53.54
72370;BME280;60343;-32.030;115.880;2023-04-08T08:01:29;101664.16;;;21.86;53.13
72370;BME280;60343;-32.030;115.880;2023-04-08T08:04:03;101664.53;;;21.89;53.17
72370;BME280;60343;-32.030;115.880;2023-04-08T08:06:38;101663.94;;;21.87;53.45
72370;BME280;60343;-32.030;115.880;2023-04-08T08:09:12;101662.44;;;21.91;53.29
72370;BME280;60343;-32.030;115.880;2023-04-08T08:11:52;101655.31;;;21.90;53.55
72370;BME280;60343;-32.030;115.880;2023-04-08T08:14:27;101664.06;;;21.74;53.79
72370;BME280;60343;-32.030;115.880;2023-04-08T08:17:03;101666.03;;;21.67;54.67
72370;BME280;60343;-32.030;115.880;2023-04-08T08:19:39;101659.75;;;21.66;55.03
72370;BME280;60343;-32.030;115.880;2023-04-08T08:22:13;101669.13;;;21.70;54.11
72370;BME280;60343;-32.030;115.880;2023-04-08T08:24:48;101668.81;;;21.60;54.56
72370;BME280;60343;-32.030;115.880;2023-04-08T08:27:28;101667.53;;;21.63;54.15
72370;BME280;60343;-32.030;115.880;2023-04-08T08:30:03;101672.53;;;21.66;54.02
72370;BME280;60343;-32.030;115.880;2023-04-08T08:32:38;101674.94;;;21.56;54.44
72370;BME280;60343;-32.030;115.880;2023-04-08T08:35:12;101675.06;;;21.43;54.44
72370;BME280;60343;-32.030;115.880;2023-04-08T08:37:47;101675.44;;;21.46;54.89
72370;BME280;60343;-32.030;115.880;2023-04-08T08:40:21;101683.84;;;21.45;54.70
72370;BME280;60343;-32.030;115.880;2023-04-08T08:43:01;101682.84;;;21.39;54.86
72370;BME280;60343;-32.030;115.880;2023-04-08T08:45:39;101688.84;;;21.48;54.49
72370;BME280;60343;-32.030;115.880;2023-04-08T08:48:14;101688.06;;;21.40;54.69
72370;BME280;60343;-32.030;115.880;2023-04-08T08:50:48;101692.34;;;21.30;55.09
72370;BME280;60343;-32.030;115.880;2023-04-08T08:53:29;101691.53;;;21.23;55.77
72370;BME280;60343;-32.030;115.880;2023-04-08T08:56:05;101682.13;;;21.25;55.19
72370;BME280;60343;-32.030;115.880;2023-04-08T08:58:47;101683.44;;;21.16;56.04
72370;BME280;60343;-32.030;115.880;2023-04-08T09:01:32;101685.53;;;21.08;55.78
72370;BME280;60343;-32.030;115.880;2023-04-08T09:04:09;101682.44;;;21.04;55.91
72370;BME280;60343;-32.030;115.880;2023-04-08T09:06:45;101682.66;;;21.03;56.25
72370;BME280;60343;-32.030;115.880;2023-04-08T09:09:19;101683.91;;;21.07;55.94
72370;BME280;60343;-32.030;115.880;2023-04-08T09:12:03;101682.22;;;21.06;56.07
72370;BME280;60343;-32.030;115.880;2023-04-08T09:14:43;101684.78;;;21.01;56.46
72370;BME280;60343;-32.030;115.880;2023-04-08T09:17:32;101683.84;;;21.13;55.66
72370;BME280;60343;-32.030;115.880;2023-04-08T09:20:09;101686.84;;;21.05;56.13
72370;BME280;60343;-32.030;115.880;2023-04-08T09:22:57;101685.19;;;20.97;56.42
72370;BME280;60343;-32.030;115.880;2023-04-08T09:25:33;101684.81;;;20.94;56.53
72370;BME280;60343;-32.030;115.880;2023-04-08T09:28:18;101685.16;;;21.04;55.54
72370;BME280;60343;-32.030;115.880;2023-04-08T09:30:58;101689.88;;;20.90;56.13
72370;BME280;60343;-32.030;115.880;2023-04-08T09:33:33;101689.19;;;20.95;56.18
72370;BME280;60343;-32.030;115.880;2023-04-08T09:36:07;101691.84;;;20.77;56.58
72370;BME280;60343;-32.030;115.880;2023-04-08T09:38:42;101690.56;;;20.73;57.10
72370;BME280;60343;-32.030;115.880;2023-04-08T09:41:17;101693.94;;;20.75;56.79
72370;BME280;60343;-32.030;115.880;2023-04-08T09:43:54;101697.69;;;20.74;56.90
72370;BME280;60343;-32.030;115.880;2023-04-08T09:46:41;101701.06;;;20.69;56.95
72370;BME280;60343;-32.030;115.880;2023-04-08T09:49:24;101705.28;;;20.65;57.23
72370;BME280;60343;-32.030;115.880;2023-04-08T09:52:06;101714.97;;;20.54;57.69
72370;BME280;60343;-32.030;115.880;2023-04-08T09:54:45;101712.69;;;20.51;57.93
72370;BME280;60343;-32.030;115.880;2023-04-08T09:57:24;101716.84;;;20.47;58.27
72370;BME280;60343;-32.030;115.880;2023-04-08T10:00:06;101716.47;;;20.44;57.92
72370;BME280;60343;-32.030;115.880;2023-04-08T10:02:51;101721.06;;;20.50;57.76
72370;BME280;60343;-32.030;115.880;2023-04-08T10:05:28;101714.59;;;20.44;57.59
72370;BME280;60343;-32.030;115.880;2023-04-08T10:08:05;101718.31;;;20.50;57.63
72370;BME280;60343;-32.030;115.880;2023-04-08T10:10:41;101716.91;;;20.41;58.31
72370;BME280;60343;-32.030;115.880;2023-04-08T10:13:16;101722.09;;;20.42;57.96
72370;BME280;60343;-32.030;115.880;2023-04-08T10:16:20;101723.19;;;20.41;57.93
72370;BME280;60343;-32.030;115.880;2023-04-08T10:19:02;101722.16;;;20.36;58.30
72370;BME280;60343;-32.030;115.880;2023-04-08T10:21:56;101728.84;;;20.27;58.57
72370;BME280;60343;-32.030;115.880;2023-04-08T10:24:31;101738.88;;;20.26;58.93
72370;BME280;60343;-32.030;115.880;2023-04-08T10:27:37;101730.72;;;20.26;58.91
72370;BME280;60343;-32.030;115.880;2023-04-08T10:30:38;101737.41;;;20.24;59.05
72370;BME280;60343;-32.030;115.880;2023-04-08T10:33:15;101731.56;;;20.27;59.07
72370;BME280;60343;-32.030;115.880;2023-04-08T10:35:58;101730.28;;;20.29;58.83
72370;BME280;60343;-32.030;115.880;2023-04-08T10:38:35;101731.97;;;20.30;58.87
72370;BME280;60343;-32.030;115.880;2023-04-08T10:41:34;101730.09;;;20.24;59.06
72370;BME280;60343;-32.030;115.880;2023-04-08T10:44:29;101728.63;;;20.28;58.87
72370;BME280;60343;-32.030;115.880;2023-04-08T10:47:09;101734.28;;;20.33;58.68
72370;BME280;60343;-32.030;115.880;2023-04-08T10:49:45;101749.75;;;20.26;59.05
72370;BME280;60343;-32.030;115.880;2023-04-08T10:52:25;101757.69;;;20.28;58.87
72370;BME280;60343;-32.030;115.880;2023-04-08T10:55:04;101763.38;;;20.26;59.41
72370;BME280;60343;-32.030;115.880;2023-04-08T10:57:39;101760.03;;;20.11;59.64
72370;BME280;60343;-32.030;115.880;2023-04-08T11:00:17;101770.25;;;20.22;59.43
72370;BME280;60343;-32.030;115.880;2023-04-08T11:02:52;101768.59;;;20.21;59.09
72370;BME280;60343;-32.030;115.880;2023-04-08T11:05:27;101766.53;;;20.17;59.18
72370;BME280;60343;-32.030;115.880;2023-04-08T11:08:08;101765.44;;;20.37;58.71
72370;BME280;60343;-32.030;115.880;2023-04-08T11:10:44;101764.41;;;20.25;59.24
72370;BME280;60343;-32.030;115.880;2023-04-08T11:13:19;101766.53;;;20.17;59.11
72370;BME280;60343;-32.030;115.880;2023-04-08T11:15:54;101775.72;;;20.09;59.63
72370;BME280;60343;-32.030;115.880;2023-04-08T11:18:29;101773.84;;;20.03;60.05
72370;BME280;60343;-32.030;115.880;2023-04-08T11:21:05;101783.25;;;20.07;60.02
72370;BME280;60343;-32.030;115.880;2023-04-08T11:23:49;101783.25;;;20.13;59.45
72370;BME280;60343;-32.030;115.880;2023-04-08T11:26:25;101781.16;;;20.09;59.74
72370;BME280;60343;-32.030;115.880;2023-04-08T11:29:00;101783.03;;;20.02;60.19
72370;BME280;60343;-32.030;115.880;2023-04-08T11:31:37;101789.53;;;20.01;60.53
72370;BME280;60343;-32.030;115.880;2023-04-08T11:34:11;101787.22;;;19.98;60.30
72370;BME280;60343;-32.030;115.880;2023-04-08T11:36:56;101800.59;;;19.93;60.91
72370;BME280;60343;-32.030;115.880;2023-04-08T11:39:40;101808.75;;;19.93;60.93
72370;BME280;60343;-32.030;115.880;2023-04-08T11:42:27;101802.94;;;19.96;61.05
72370;BME280;60343;-32.030;115.880;2023-04-08T11:45:08;101811.69;;;20.11;61.07
72370;BME280;60343;-32.030;115.880;2023-04-08T11:47:43;101815.47;;;20.03;61.14
72370;BME280;60343;-32.030;115.880;2023-04-08T11:50:24;101815.47;;;19.90;61.90
72370;BME280;60343;-32.030;115.880;2023-04-08T11:52:58;101814.84;;;20.01;62.34
72370;BME280;60343;-32.030;115.880;2023-04-08T11:55:39;101822.16;;;20.01;62.00
72370;BME280;60343;-32.030;115.880;2023-04-08T11:58:13;101828.84;;;19.98;61.61
72370;BME280;60343;-32.030;115.880;2023-04-08T12:00:48;101803.97;;;19.95;61.16
72370;BME280;60343;-32.030;115.880;2023-04-08T12:03:23;101809.81;;;19.79;61.31
72370;BME280;60343;-32.030;115.880;2023-04-08T12:05:57;101809.59;;;19.74;62.11
72370;BME280;60343;-32.030;115.880;2023-04-08T12:08:33;101807.50;;;19.62;61.88
72370;BME280;60343;-32.030;115.880;2023-04-08T12:11:14;101807.50;;;19.69;62.00
72370;BME280;60343;-32.030;115.880;2023-04-08T12:13:48;101806.25;;;19.58;62.38
72370;BME280;60343;-32.030;115.880;2023-04-08T12:16:23;101808.56;;;19.61;62.37
72370;BME280;60343;-32.030;115.880;2023-04-08T12:18:58;101814.41;;;19.65;62.43
72370;BME280;60343;-32.030;115.880;2023-04-08T12:21:32;101811.47;;;19.60;62.78
72370;BME280;60343;-32.030;115.880;2023-04-08T12:24:07;101807.50;;;19.62;62.66
72370;BME280;60343;-32.030;115.880;2023-04-08T12:26:47;101804.16;;;19.54;62.73
72370;BME280;60343;-32.030;115.880;2023-04-08T12:29:22;101811.47;;;19.60;62.70
72370;BME280;60343;-32.030;115.880;2023-04-08T12:31:57;101807.72;;;19.54;63.02
72370;BME280;60343;-32.030;115.880;2023-04-08T12:34:32;101811.28;;;19.61;63.03
72370;BME280;60343;-32.030;115.880;2023-04-08T12:37:06;101815.63;;;19.49;63.23
72370;BME280;60343;-32.030;115.880;2023-04-08T12:39:42;101815.00;;;19.47;63.35
72370;BME280;60343;-32.030;115.880;2023-04-08T12:42:23;101807.88;;;19.40;63.60
72370;BME280;60343;-32.030;115.880;2023-04-08T12:44:57;101817.25;;;19.31;63.73
72370;BME280;60343;-32.030;115.880;2023-04-08T12:47:32;101817.38;;;19.09;64.02
72370;BME280;60343;-32.030;115.880;2023-04-08T12:50:07;101828.41;;;18.95;64.54
72370;BME280;60343;-32.030;115.880;2023-04-08T12:52:42;101828.34;;;18.88;65.07
72370;BME280;60343;-32.030;115.880;2023-04-08T12:55:16;101839.34;;;18.73;65.54
72370;BME280;60343;-32.030;115.880;2023-04-08T12:57:57;101829.38;;;18.80;65.85
72370;BME280;60343;-32.030;115.880;2023-04-08T13:00:32;101833.97;;;18.80;65.91
72370;BME280;60343;-32.030;115.880;2023-04-08T13:03:06;101841.81;;;18.68;65.98
72370;BME280;60343;-32.030;115.880;2023-04-08T13:05:44;101832.81;;;18.61;66.29
72370;BME280;60343;-32.030;115.880;2023-04-08T13:08:18;101833.22;;;18.58;66.55
72370;BME280;60343;-32.030;115.880;2023-04-08T13:10:53;101832.63;;;18.63;66.96